createdAt,value
2019-04-30T00:00:18.284Z,0.00
2019-04-30T00:01:18.920Z,0.00
2019-04-30T00:02:17.441Z,0.00
2019-04-30T00:03:19.617Z,0.00
2019-04-30T00:04:17.488Z,0.00
2019-04-30T00:05:18.859Z,0.00
2019-04-30T00:06:17.367Z,0.00
2019-04-30T00:07:18.997Z,0.00
2019-04-30T00:08:17.278Z,0.00
2019-04-30T00:09:18.902Z,0.00
2019-04-30T00:10:17.294Z,0.00
2019-04-30T00:11:19.461Z,0.00
2019-04-30T00:12:17.305Z,0.00
2019-04-30T00:13:20.593Z,0.00
2019-04-30T00:14:17.350Z,0.00
2019-04-30T00:15:19.405Z,0.00
2019-04-30T00:16:17.231Z,0.00
2019-04-30T00:17:19.685Z,0.00
2019-04-30T00:18:17.250Z,0.00
2019-04-30T00:19:19.667Z,0.00
2019-04-30T00:20:17.662Z,0.00
2019-04-30T00:21:18.667Z,0.00
2019-04-30T00:22:17.174Z,0.00
2019-04-30T00:23:18.023Z,0.00
2019-04-30T00:24:18.266Z,0.00
2019-04-30T00:25:19.643Z,0.00
2019-04-30T00:26:18.123Z,0.00
2019-04-30T00:27:20.998Z,0.00
2019-04-30T00:28:18.026Z,0.00
2019-04-30T00:29:26.460Z,0.00
2019-04-30T00:30:18.013Z,0.00
2019-04-30T00:31:23.476Z,0.00
2019-04-30T00:32:17.978Z,0.00
2019-04-30T00:33:22.184Z,0.00
2019-04-30T00:34:17.986Z,0.00
2019-04-30T00:35:19.589Z,0.00
2019-04-30T00:36:17.388Z,0.00
2019-04-30T00:37:18.756Z,0.00
2019-04-30T00:38:16.916Z,0.00
2019-04-30T00:39:17.014Z,0.00
2019-04-30T00:40:16.934Z,0.00
2019-04-30T00:41:17.013Z,0.00
2019-04-30T00:42:23.984Z,0.00
2019-04-30T00:43:17.863Z,0.00
2019-04-30T00:44:20.049Z,0.00
2019-04-30T00:45:17.860Z,0.00
2019-04-30T00:46:24.743Z,0.00
2019-04-30T00:47:17.816Z,0.00
2019-04-30T00:48:26.568Z,0.00
2019-04-30T00:49:22.836Z,0.00
2019-04-30T00:50:17.910Z,0.00
2019-04-30T00:51:21.042Z,0.00
2019-04-30T00:52:16.889Z,0.00
2019-04-30T00:53:16.754Z,0.00
2019-04-30T00:54:17.726Z,0.00
2019-04-30T00:55:16.758Z,0.00
2019-04-30T00:56:19.910Z,0.00
2019-04-30T00:57:17.709Z,0.00
2019-04-30T00:58:24.820Z,0.00
2019-04-30T00:59:17.692Z,0.00
2019-04-30T01:00:24.837Z,0.00
2019-04-30T01:01:17.664Z,0.00
2019-04-30T01:02:19.937Z,0.00
2019-04-30T01:03:17.675Z,0.00
2019-04-30T01:04:19.477Z,0.00
2019-04-30T01:05:17.690Z,0.00
2019-04-30T01:06:23.632Z,0.00
2019-04-30T01:07:17.598Z,0.00
2019-04-30T01:08:21.070Z,0.00
2019-04-30T01:09:17.574Z,0.00
2019-04-30T01:10:19.530Z,0.00
2019-04-30T01:11:17.579Z,0.00
2019-04-30T01:12:17.380Z,0.00
2019-04-30T01:13:19.170Z,0.00
2019-04-30T01:14:16.611Z,0.00
2019-04-30T01:15:16.543Z,0.00
2019-04-30T01:16:16.528Z,0.00
2019-04-30T01:17:16.488Z,0.00
2019-04-30T01:18:16.645Z,0.00
2019-04-30T01:19:27.199Z,0.00
2019-04-30T01:20:19.251Z,0.00
2019-04-30T01:21:18.383Z,0.00
2019-04-30T01:22:21.275Z,0.00
2019-04-30T01:23:19.397Z,0.00
2019-04-30T01:24:16.504Z,0.00
2019-04-30T01:25:16.396Z,0.00
2019-04-30T01:26:18.619Z,0.00
2019-04-30T01:27:16.377Z,0.00
2019-04-30T01:28:20.215Z,0.00
2019-04-30T01:29:19.101Z,0.00
2019-04-30T01:30:21.079Z,0.00
2019-04-30T01:31:18.787Z,0.00
2019-04-30T01:32:17.562Z,0.00
2019-04-30T01:33:16.308Z,0.00
2019-04-30T01:34:16.367Z,0.00
2019-04-30T01:35:16.293Z,0.00
2019-04-30T01:36:16.385Z,0.00
2019-04-30T01:37:16.260Z,0.00
2019-04-30T01:38:16.385Z,0.00
2019-04-30T01:39:16.241Z,0.00
2019-04-30T01:40:16.286Z,0.00
2019-04-30T01:41:20.318Z,0.00
2019-04-30T01:42:18.482Z,0.00
2019-04-30T01:43:16.304Z,0.00
2019-04-30T01:44:16.192Z,0.00
2019-04-30T01:45:16.229Z,0.00
2019-04-30T01:46:16.211Z,0.00
2019-04-30T01:47:16.230Z,0.00
2019-04-30T01:48:16.146Z,0.00
2019-04-30T01:49:16.246Z,0.00
2019-04-30T01:50:16.121Z,0.00
2019-04-30T01:51:20.466Z,0.00
2019-04-30T01:52:17.124Z,0.00
2019-04-30T01:53:16.168Z,0.00
2019-04-30T01:54:20.813Z,0.00
2019-04-30T01:55:17.111Z,0.00
2019-04-30T01:56:16.053Z,0.00
2019-04-30T01:57:16.128Z,0.00
2019-04-30T01:58:16.031Z,0.00
2019-04-30T01:59:16.108Z,0.00
2019-04-30T02:00:16.009Z,0.00
2019-04-30T02:01:16.123Z,0.00
2019-04-30T02:02:16.023Z,0.00
2019-04-30T02:03:16.038Z,0.00
2019-04-30T02:04:15.964Z,0.00
2019-04-30T02:05:16.050Z,0.00
2019-04-30T02:06:15.946Z,0.00
2019-04-30T02:07:15.994Z,0.00
2019-04-30T02:08:15.926Z,0.00
2019-04-30T02:09:15.973Z,0.00
2019-04-30T02:10:15.897Z,0.00
2019-04-30T02:11:15.989Z,0.00
2019-04-30T02:12:15.916Z,0.00
2019-04-30T02:13:15.900Z,0.00
2019-04-30T02:14:15.979Z,0.00
2019-04-30T02:15:15.914Z,0.00
2019-04-30T02:16:15.833Z,0.00
2019-04-30T02:17:15.961Z,0.00
2019-04-30T02:18:15.852Z,0.00
2019-04-30T02:19:15.841Z,0.00
2019-04-30T02:20:15.796Z,0.00
2019-04-30T02:21:15.957Z,0.00
2019-04-30T02:22:15.798Z,0.00
2019-04-30T02:23:15.865Z,0.00
2019-04-30T02:24:15.753Z,0.00
2019-04-30T02:25:15.781Z,0.00
2019-04-30T02:26:15.722Z,0.00
2019-04-30T02:27:15.820Z,0.00
2019-04-30T02:28:15.734Z,0.00
2019-04-30T02:29:15.805Z,0.00
2019-04-30T02:30:15.679Z,0.00
2019-04-30T02:31:15.833Z,0.00
2019-04-30T02:32:15.685Z,0.00
2019-04-30T02:33:15.759Z,0.00
2019-04-30T02:34:15.634Z,0.00
2019-04-30T02:35:15.753Z,0.00
2019-04-30T02:36:15.649Z,0.00
2019-04-30T02:37:15.658Z,0.00
2019-04-30T02:38:15.618Z,0.00
2019-04-30T02:39:15.670Z,0.00
2019-04-30T02:40:15.573Z,0.00
2019-04-30T02:41:15.582Z,0.00
2019-04-30T02:42:15.545Z,0.00
2019-04-30T02:43:15.627Z,0.00
2019-04-30T02:44:15.531Z,0.00
2019-04-30T02:45:15.609Z,0.00
2019-04-30T02:46:15.500Z,0.00
2019-04-30T02:47:15.523Z,0.00
2019-04-30T02:48:15.511Z,0.00
2019-04-30T02:49:15.569Z,0.00
2019-04-30T02:50:21.570Z,0.00
2019-04-30T02:51:16.469Z,0.00
2019-04-30T02:52:15.439Z,0.00
2019-04-30T02:53:15.492Z,0.00
2019-04-30T02:54:15.417Z,0.00
2019-04-30T02:55:15.475Z,0.00
2019-04-30T02:56:15.390Z,0.00
2019-04-30T02:57:15.487Z,0.00
2019-04-30T02:58:15.374Z,0.00
2019-04-30T02:59:15.428Z,0.00
2019-04-30T03:00:15.351Z,0.00
2019-04-30T03:01:15.420Z,0.00
2019-04-30T03:02:15.323Z,0.00
2019-04-30T03:03:15.435Z,0.00
2019-04-30T03:04:15.326Z,0.00
2019-04-30T03:05:15.345Z,0.00
2019-04-30T03:06:15.278Z,0.00
2019-04-30T03:07:15.367Z,0.00
2019-04-30T03:08:15.286Z,0.00
2019-04-30T03:09:15.370Z,0.00
2019-04-30T03:10:15.249Z,0.00
2019-04-30T03:11:15.280Z,0.00
2019-04-30T03:12:15.212Z,0.00
2019-04-30T03:13:15.294Z,0.00
2019-04-30T03:14:15.229Z,0.00
2019-04-30T03:15:15.312Z,0.00
2019-04-30T03:16:15.205Z,0.00
2019-04-30T03:17:15.219Z,0.00
2019-04-30T03:18:15.153Z,0.00
2019-04-30T03:19:15.263Z,0.00
2019-04-30T03:20:27.752Z,0.00
2019-04-30T03:21:16.121Z,0.00
2019-04-30T03:22:15.150Z,0.00
2019-04-30T03:23:15.100Z,0.00
2019-04-30T03:24:15.218Z,0.00
2019-04-30T03:25:15.078Z,0.00
2019-04-30T03:26:15.188Z,0.00
2019-04-30T03:27:15.063Z,0.00
2019-04-30T03:28:15.093Z,0.00
2019-04-30T03:29:15.074Z,0.00
2019-04-30T03:30:15.108Z,0.00
2019-04-30T03:31:15.015Z,0.00
2019-04-30T03:32:15.123Z,0.00
2019-04-30T03:33:15.091Z,0.00
2019-04-30T03:34:24.182Z,0.00
2019-04-30T03:35:16.000Z,4.00
2019-04-30T03:36:15.046Z,0.00
2019-04-30T03:37:14.954Z,0.00
2019-04-30T03:38:15.073Z,4.00
2019-04-30T03:39:14.933Z,4.00
2019-04-30T03:40:14.999Z,4.00
2019-04-30T03:41:14.919Z,4.00
2019-04-30T03:42:14.990Z,4.00
2019-04-30T03:43:14.883Z,8.00
2019-04-30T03:44:21.470Z,4.00
2019-04-30T03:45:15.898Z,4.00
2019-04-30T03:46:14.916Z,8.00
2019-04-30T03:47:14.843Z,8.00
2019-04-30T03:48:14.924Z,12.00
2019-04-30T03:49:14.819Z,12.00
2019-04-30T03:50:14.877Z,12.00
2019-04-30T03:51:14.810Z,16.00
2019-04-30T03:52:14.853Z,12.00
2019-04-30T03:53:14.778Z,20.00
2019-04-30T03:54:14.866Z,20.00
2019-04-30T03:55:14.790Z,20.00
2019-04-30T03:56:14.776Z,24.00
2019-04-30T03:57:14.749Z,28.00
2019-04-30T03:58:14.789Z,32.00
2019-04-30T03:59:14.723Z,36.00
2019-04-30T04:00:14.832Z,40.00
2019-04-30T04:01:14.710Z,44.00
2019-04-30T04:02:14.733Z,48.00
2019-04-30T04:03:14.681Z,52.00
2019-04-30T04:04:14.727Z,60.00
2019-04-30T04:05:14.673Z,64.00
2019-04-30T04:06:14.773Z,68.00
2019-04-30T04:07:14.634Z,72.00
2019-04-30T04:08:14.655Z,80.00
2019-04-30T04:09:14.614Z,88.00
2019-04-30T04:10:14.666Z,96.00
2019-04-30T04:11:14.603Z,100.00
2019-04-30T04:12:14.680Z,104.00
2019-04-30T04:13:14.557Z,116.00
2019-04-30T04:14:14.595Z,124.00
2019-04-30T04:15:14.538Z,128.00
2019-04-30T04:16:14.634Z,136.00
2019-04-30T04:17:14.512Z,144.00
2019-04-30T04:18:14.628Z,152.00
2019-04-30T04:19:14.494Z,160.00
2019-04-30T04:20:14.538Z,168.00
2019-04-30T04:21:16.899Z,180.00
2019-04-30T04:22:14.551Z,188.00
2019-04-30T04:23:14.454Z,200.00
2019-04-30T04:24:14.566Z,204.00
2019-04-30T04:25:14.433Z,216.00
2019-04-30T04:26:14.506Z,228.00
2019-04-30T04:27:14.407Z,236.00
2019-04-30T04:28:14.492Z,248.00
2019-04-30T04:29:14.381Z,256.00
2019-04-30T04:30:14.508Z,268.00
2019-04-30T04:31:14.393Z,276.00
2019-04-30T04:32:14.423Z,284.00
2019-04-30T04:33:14.341Z,292.00
2019-04-30T04:34:14.431Z,300.00
2019-04-30T04:35:14.339Z,312.00
2019-04-30T04:36:14.370Z,320.00
2019-04-30T04:37:14.305Z,328.00
2019-04-30T04:38:14.356Z,344.00
2019-04-30T04:39:14.273Z,352.00
2019-04-30T04:40:14.374Z,360.00
2019-04-30T04:41:14.288Z,368.00
2019-04-30T04:42:14.275Z,380.00
2019-04-30T04:43:14.239Z,388.00
2019-04-30T04:44:14.297Z,396.00
2019-04-30T04:45:14.209Z,408.00
2019-04-30T04:46:14.332Z,412.00
2019-04-30T04:47:16.081Z,420.00
2019-04-30T04:48:14.216Z,432.00
2019-04-30T04:49:14.169Z,440.00
2019-04-30T04:50:14.230Z,452.00
2019-04-30T04:51:27.737Z,464.00
2019-04-30T04:52:15.173Z,472.00
2019-04-30T04:53:14.148Z,484.00
2019-04-30T04:54:14.113Z,488.00
2019-04-30T04:55:14.162Z,496.00
2019-04-30T04:56:14.181Z,504.00
2019-04-30T04:57:18.407Z,516.00
2019-04-30T04:58:15.074Z,524.00
2019-04-30T04:59:14.189Z,532.00
2019-04-30T05:00:14.044Z,536.00
2019-04-30T05:01:14.103Z,540.00
2019-04-30T05:02:14.058Z,544.00
2019-04-30T05:03:14.115Z,552.00
2019-04-30T05:04:14.005Z,556.00
2019-04-30T05:05:14.027Z,568.00
2019-04-30T05:06:14.005Z,584.00
2019-04-30T05:07:14.074Z,604.00
2019-04-30T05:08:14.108Z,620.00
2019-04-30T05:09:14.061Z,632.00
2019-04-30T05:10:13.934Z,644.00
2019-04-30T05:11:13.967Z,656.00
2019-04-30T05:12:13.952Z,680.00
2019-04-30T05:13:14.224Z,712.00
2019-04-30T05:14:13.890Z,696.00
2019-04-30T05:15:14.304Z,668.00
2019-04-30T05:16:13.869Z,628.00
2019-04-30T05:17:13.907Z,632.00
2019-04-30T05:18:13.901Z,648.00
2019-04-30T05:19:13.919Z,656.00
2019-04-30T05:20:13.827Z,660.00
2019-04-30T05:21:13.933Z,656.00
2019-04-30T05:22:13.807Z,672.00
2019-04-30T05:23:13.874Z,708.00
2019-04-30T05:24:13.782Z,676.00
2019-04-30T05:25:13.860Z,668.00
2019-04-30T05:26:13.756Z,696.00
2019-04-30T05:27:13.871Z,772.00
2019-04-30T05:28:13.766Z,780.00
2019-04-30T05:29:13.784Z,772.00
2019-04-30T05:30:13.717Z,820.00
2019-04-30T05:31:13.802Z,772.00
2019-04-30T05:32:13.697Z,824.00
2019-04-30T05:33:14.918Z,976.00
2019-04-30T05:34:13.676Z,1032.00
2019-04-30T05:35:13.725Z,984.00
2019-04-30T05:36:13.648Z,952.00
2019-04-30T05:37:13.743Z,988.00
2019-04-30T05:38:13.656Z,928.00
2019-04-30T05:39:13.654Z,888.00
2019-04-30T05:40:13.609Z,860.00
2019-04-30T05:41:13.670Z,848.00
2019-04-30T05:42:13.584Z,828.00
2019-04-30T05:43:13.709Z,824.00
2019-04-30T05:44:13.566Z,844.00
2019-04-30T05:45:13.598Z,912.00
2019-04-30T05:46:14.177Z,912.00
2019-04-30T05:47:13.615Z,980.00
2019-04-30T05:48:13.556Z,1044.00
2019-04-30T05:49:13.627Z,1028.00
2019-04-30T05:50:13.503Z,976.00
2019-04-30T05:51:13.536Z,980.00
2019-04-30T05:52:13.483Z,1080.00
2019-04-30T05:53:13.574Z,1192.00
2019-04-30T05:54:13.483Z,1132.00
2019-04-30T05:55:13.561Z,948.00
2019-04-30T05:56:13.446Z,952.00
2019-04-30T05:57:13.482Z,1012.00
2019-04-30T05:58:13.417Z,1008.00
2019-04-30T05:59:13.525Z,1032.00
2019-04-30T06:00:13.396Z,1044.00
2019-04-30T06:01:13.494Z,1052.00
2019-04-30T06:02:13.366Z,1036.00
2019-04-30T06:03:24.690Z,1052.00
2019-04-30T06:04:14.384Z,1060.00
2019-04-30T06:05:13.425Z,1068.00
2019-04-30T06:06:13.332Z,1064.00
2019-04-30T06:07:13.436Z,1072.00
2019-04-30T06:08:13.300Z,1088.00
2019-04-30T06:09:18.727Z,1100.00
2019-04-30T06:10:14.276Z,1108.00
2019-04-30T06:11:13.361Z,1156.00
2019-04-30T06:12:13.257Z,1196.00
2019-04-30T06:13:13.273Z,1124.00
2019-04-30T06:14:13.278Z,1136.00
2019-04-30T06:15:13.287Z,1176.00
2019-04-30T06:16:13.217Z,1332.00
2019-04-30T06:17:13.304Z,1456.00
2019-04-30T06:18:14.034Z,1228.00
2019-04-30T06:19:13.247Z,1104.00
2019-04-30T06:20:18.209Z,1080.00
2019-04-30T06:21:14.252Z,1064.00
2019-04-30T06:22:13.153Z,1020.00
2019-04-30T06:23:13.242Z,964.00
2019-04-30T06:24:13.146Z,944.00
2019-04-30T06:25:13.193Z,932.00
2019-04-30T06:26:13.378Z,940.00
2019-04-30T06:27:13.166Z,924.00
2019-04-30T06:28:13.087Z,928.00
2019-04-30T06:29:13.211Z,940.00
2019-04-30T06:30:13.109Z,960.00
2019-04-30T06:31:13.093Z,1120.00
2019-04-30T06:32:13.048Z,1000.00
2019-04-30T06:33:13.106Z,1232.00
2019-04-30T06:34:13.027Z,1232.00
2019-04-30T06:35:13.151Z,1248.00
2019-04-30T06:36:13.011Z,1276.00
2019-04-30T06:37:13.044Z,1284.00
2019-04-30T06:38:12.986Z,1300.00
2019-04-30T06:39:13.049Z,1316.00
2019-04-30T06:40:12.985Z,1324.00
2019-04-30T06:41:13.082Z,1316.00
2019-04-30T06:42:13.193Z,1324.00
2019-04-30T06:43:12.970Z,1356.00
2019-04-30T06:44:12.936Z,1388.00
2019-04-30T06:45:13.013Z,1424.00
2019-04-30T06:46:12.896Z,1560.00
2019-04-30T06:47:12.996Z,1704.00
2019-04-30T06:48:12.884Z,1772.00
2019-04-30T06:49:12.907Z,2004.00
2019-04-30T06:50:12.883Z,2196.00
2019-04-30T06:51:12.929Z,2308.00
2019-04-30T06:52:20.641Z,2660.00
2019-04-30T06:53:13.817Z,2816.00
2019-04-30T06:54:12.844Z,2784.00
2019-04-30T06:55:12.834Z,2796.00
2019-04-30T06:56:12.863Z,2564.00
2019-04-30T06:57:12.776Z,2212.00
2019-04-30T06:58:15.533Z,2180.00
2019-04-30T06:59:12.760Z,1940.00
2019-04-30T07:00:12.812Z,1660.00
2019-04-30T07:01:12.740Z,1632.00
2019-04-30T07:02:12.795Z,1384.00
2019-04-30T07:03:12.706Z,1300.00
2019-04-30T07:04:12.811Z,1296.00
2019-04-30T07:05:12.721Z,1264.00
2019-04-30T07:06:12.729Z,1312.00
2019-04-30T07:07:14.262Z,1356.00
2019-04-30T07:08:13.758Z,1568.00
2019-04-30T07:09:12.644Z,1708.00
2019-04-30T07:10:16.919Z,2048.00
2019-04-30T07:11:13.660Z,1728.00
2019-04-30T07:12:22.950Z,1724.00
2019-04-30T07:13:13.600Z,1756.00
2019-04-30T07:14:12.700Z,1976.00
2019-04-30T07:15:13.789Z,2088.00
2019-04-30T07:16:12.723Z,2012.00
2019-04-30T07:17:12.560Z,2164.00
2019-04-30T07:18:12.598Z,2196.00
2019-04-30T07:19:12.538Z,1860.00
2019-04-30T07:20:12.615Z,1824.00
2019-04-30T07:21:12.514Z,1992.00
2019-04-30T07:22:12.657Z,2372.00
2019-04-30T07:23:12.499Z,2724.00
2019-04-30T07:24:12.537Z,2304.00
2019-04-30T07:25:12.473Z,2072.00
2019-04-30T07:26:13.727Z,1900.00
2019-04-30T07:27:13.478Z,1576.00
2019-04-30T07:28:12.475Z,1432.00
2019-04-30T07:29:12.435Z,1516.00
2019-04-30T07:30:12.479Z,1708.00
2019-04-30T07:31:14.657Z,2016.00
2019-04-30T07:32:12.493Z,2368.00
2019-04-30T07:33:12.387Z,2444.00
2019-04-30T07:34:12.538Z,2476.00
2019-04-30T07:35:12.362Z,2460.00
2019-04-30T07:36:12.506Z,2336.00
2019-04-30T07:37:20.431Z,1920.00
2019-04-30T07:38:13.326Z,1700.00
2019-04-30T07:39:12.618Z,1556.00
2019-04-30T07:40:12.306Z,1408.00
2019-04-30T07:41:12.388Z,1564.00
2019-04-30T07:42:12.287Z,1464.00
2019-04-30T07:43:12.368Z,1596.00
2019-04-30T07:44:29.450Z,1824.00
2019-04-30T07:45:13.263Z,1820.00
2019-04-30T07:46:12.330Z,1848.00
2019-04-30T07:47:12.239Z,1480.00
2019-04-30T07:48:12.302Z,1832.00
2019-04-30T07:49:12.244Z,1824.00
2019-04-30T07:50:12.849Z,1772.00
2019-04-30T07:51:12.458Z,1792.00
2019-04-30T07:52:12.927Z,1772.00
2019-04-30T07:53:12.868Z,1788.00
2019-04-30T07:54:12.238Z,1808.00
2019-04-30T07:55:12.145Z,1668.00
2019-04-30T07:56:24.221Z,1912.00
2019-04-30T07:57:13.201Z,1956.00
2019-04-30T07:58:12.374Z,2044.00
2019-04-30T07:59:12.109Z,2088.00
2019-04-30T08:00:12.177Z,1696.00
2019-04-30T08:01:12.078Z,1628.00
2019-04-30T08:02:14.855Z,1996.00
2019-04-30T08:03:12.348Z,1968.00
2019-04-30T08:04:12.102Z,1976.00
2019-04-30T08:05:12.042Z,2000.00
2019-04-30T08:06:12.219Z,2068.00
2019-04-30T08:07:12.084Z,2152.00
2019-04-30T08:08:21.114Z,2276.00
2019-04-30T08:09:12.992Z,2496.00
2019-04-30T08:10:12.039Z,2752.00
2019-04-30T08:11:23.061Z,3008.00
2019-04-30T08:12:21.510Z,3432.00
2019-04-30T08:13:15.176Z,3664.00
2019-04-30T08:14:12.119Z,3596.00
2019-04-30T08:15:11.929Z,3800.00
2019-04-30T08:16:11.979Z,3584.00
2019-04-30T08:17:11.906Z,3748.00
2019-04-30T08:18:12.029Z,3612.00
2019-04-30T08:19:11.901Z,3172.00
2019-04-30T08:20:11.908Z,3352.00
2019-04-30T08:21:11.871Z,3720.00
2019-04-30T08:22:11.918Z,3624.00
2019-04-30T08:23:20.350Z,3168.00
2019-04-30T08:24:12.834Z,3380.00
2019-04-30T08:25:11.940Z,3168.00
2019-04-30T08:26:11.810Z,2416.00
2019-04-30T08:27:13.032Z,2064.00
2019-04-30T08:28:11.894Z,1956.00
2019-04-30T08:29:11.870Z,1908.00
2019-04-30T08:30:23.002Z,2228.00
2019-04-30T08:31:15.472Z,1640.00
2019-04-30T08:32:11.785Z,1576.00
2019-04-30T08:33:11.764Z,1612.00
2019-04-30T08:34:11.799Z,1500.00
2019-04-30T08:35:11.708Z,1400.00
2019-04-30T08:36:11.814Z,1284.00
2019-04-30T08:37:17.053Z,1248.00
2019-04-30T08:38:12.799Z,1240.00
2019-04-30T08:39:11.680Z,1284.00
2019-04-30T08:40:11.743Z,1324.00
2019-04-30T08:41:11.644Z,1376.00
2019-04-30T08:42:11.922Z,1684.00
2019-04-30T08:43:11.656Z,2072.00
2019-04-30T08:44:11.700Z,2104.00
2019-04-30T08:45:11.608Z,2236.00
2019-04-30T08:46:11.681Z,2296.00
2019-04-30T08:47:11.584Z,2440.00
2019-04-30T08:48:11.630Z,1984.00
2019-04-30T08:49:11.701Z,2312.00
2019-04-30T08:50:11.893Z,2384.00
2019-04-30T08:51:13.616Z,2176.00
2019-04-30T08:52:11.945Z,2176.00
2019-04-30T08:53:11.895Z,2132.00
2019-04-30T08:54:11.536Z,2064.00
2019-04-30T08:55:16.445Z,2124.00
2019-04-30T08:56:12.481Z,2096.00
2019-04-30T08:57:11.549Z,2092.00
2019-04-30T08:58:14.870Z,2052.00
2019-04-30T08:59:11.598Z,1844.00
2019-04-30T09:00:11.818Z,2048.00
2019-04-30T09:01:11.487Z,1720.00
2019-04-30T09:02:15.904Z,2112.00
2019-04-30T09:03:13.008Z,2196.00
2019-04-30T09:04:11.445Z,2208.00
2019-04-30T09:05:11.506Z,2200.00
2019-04-30T09:06:11.376Z,2168.00
2019-04-30T09:07:11.420Z,2196.00
2019-04-30T09:08:11.358Z,2280.00
2019-04-30T09:09:11.464Z,2544.00
2019-04-30T09:10:11.489Z,2848.00
2019-04-30T09:11:22.480Z,3168.00
2019-04-30T09:12:12.324Z,3180.00
2019-04-30T09:13:11.355Z,3312.00
2019-04-30T09:14:11.317Z,3552.00
2019-04-30T09:15:11.374Z,3668.00
2019-04-30T09:16:11.326Z,4072.00
2019-04-30T09:17:11.293Z,4508.00
2019-04-30T09:18:12.593Z,4272.00
2019-04-30T09:19:11.342Z,4132.00
2019-04-30T09:20:11.226Z,3888.00
2019-04-30T09:21:11.309Z,4028.00
2019-04-30T09:22:15.073Z,3504.00
2019-04-30T09:23:11.385Z,3064.00
2019-04-30T09:24:11.209Z,2792.00
2019-04-30T09:25:11.241Z,2848.00
2019-04-30T09:26:11.328Z,2988.00
2019-04-30T09:27:11.249Z,2600.00
2019-04-30T09:28:11.133Z,2240.00
2019-04-30T09:29:11.203Z,1668.00
2019-04-30T09:30:11.112Z,1524.00
2019-04-30T09:31:11.285Z,1452.00
2019-04-30T09:32:11.085Z,1424.00
2019-04-30T09:33:11.299Z,1396.00
2019-04-30T09:34:17.111Z,1420.00
2019-04-30T09:35:12.124Z,1676.00
2019-04-30T09:36:11.049Z,2072.00
2019-04-30T09:37:11.132Z,1996.00
2019-04-30T09:38:11.021Z,2112.00
2019-04-30T09:39:11.160Z,2088.00
2019-04-30T09:40:18.261Z,2188.00
2019-04-30T09:41:12.087Z,2180.00
2019-04-30T09:42:10.979Z,2228.00
2019-04-30T09:43:11.060Z,2312.00
2019-04-30T09:44:10.954Z,2412.00
2019-04-30T09:45:10.998Z,2584.00
2019-04-30T09:46:21.273Z,2852.00
2019-04-30T09:47:11.918Z,2932.00
2019-04-30T09:48:10.985Z,2888.00
2019-04-30T09:49:10.907Z,2732.00
2019-04-30T09:50:11.057Z,2592.00
2019-04-30T09:51:11.533Z,2520.00
2019-04-30T09:52:11.065Z,2320.00
2019-04-30T09:53:11.202Z,2272.00
2019-04-30T09:54:12.750Z,2216.00
2019-04-30T09:55:10.881Z,2328.00
2019-04-30T09:56:10.978Z,2220.00
2019-04-30T09:57:11.490Z,1800.00
2019-04-30T09:58:17.148Z,2136.00
2019-04-30T09:59:11.790Z,2912.00
2019-04-30T10:00:10.901Z,3012.00
2019-04-30T10:01:10.804Z,3136.00
2019-04-30T10:02:10.891Z,3096.00
2019-04-30T10:03:11.717Z,3180.00
2019-04-30T10:04:11.204Z,3204.00
2019-04-30T10:05:11.530Z,3004.00
2019-04-30T10:06:10.842Z,2584.00
2019-04-30T10:07:10.716Z,2184.00
2019-04-30T10:08:10.720Z,2464.00
2019-04-30T10:09:10.682Z,2140.00
2019-04-30T10:10:11.391Z,1808.00
2019-04-30T10:11:10.656Z,2256.00
2019-04-30T10:12:10.755Z,2256.00
2019-04-30T10:13:10.646Z,2192.00
2019-04-30T10:14:10.660Z,2104.00
2019-04-30T10:15:10.657Z,2084.00
2019-04-30T10:16:10.670Z,2032.00
2019-04-30T10:17:10.590Z,2124.00
2019-04-30T10:18:10.690Z,2060.00
2019-04-30T10:19:10.604Z,2048.00
2019-04-30T10:20:10.630Z,2088.00
2019-04-30T10:21:10.575Z,2056.00
2019-04-30T10:22:10.613Z,1968.00
2019-04-30T10:23:10.529Z,2072.00
2019-04-30T10:24:15.416Z,2268.00
2019-04-30T10:25:11.551Z,2360.00
2019-04-30T10:26:10.550Z,2416.00
2019-04-30T10:27:13.258Z,2512.00
2019-04-30T10:28:10.560Z,2772.00
2019-04-30T10:29:10.461Z,2980.00
2019-04-30T10:30:10.590Z,2984.00
2019-04-30T10:31:10.466Z,2748.00
2019-04-30T10:32:10.485Z,2488.00
2019-04-30T10:33:10.423Z,2408.00
2019-04-30T10:34:10.491Z,2448.00
2019-04-30T10:35:10.399Z,2468.00
2019-04-30T10:36:10.645Z,2408.00
2019-04-30T10:37:10.406Z,2364.00
2019-04-30T10:38:10.421Z,2380.00
2019-04-30T10:39:10.363Z,2340.00
2019-04-30T10:40:10.543Z,2300.00
2019-04-30T10:41:10.374Z,2336.00
2019-04-30T10:42:10.491Z,2328.00
2019-04-30T10:43:10.322Z,2268.00
2019-04-30T10:44:10.363Z,2236.00
2019-04-30T10:45:10.285Z,2260.00
2019-04-30T10:46:10.520Z,2204.00
2019-04-30T10:47:10.301Z,1964.00
2019-04-30T10:48:10.285Z,1952.00
2019-04-30T10:49:10.242Z,2136.00
2019-04-30T10:50:10.303Z,2184.00
2019-04-30T10:51:10.221Z,2276.00
2019-04-30T10:52:10.344Z,2152.00
2019-04-30T10:53:12.439Z,2256.00
2019-04-30T10:54:23.034Z,2308.00
2019-04-30T10:55:11.176Z,2312.00
2019-04-30T10:56:10.355Z,2340.00
2019-04-30T10:57:10.181Z,2368.00
2019-04-30T10:58:10.247Z,2380.00
2019-04-30T10:59:10.138Z,2364.00
2019-04-30T11:00:10.192Z,2340.00
2019-04-30T11:01:10.115Z,2340.00
2019-04-30T11:02:10.215Z,2344.00
2019-04-30T11:03:19.567Z,2360.00
2019-04-30T11:04:11.090Z,2408.00
2019-04-30T11:05:10.191Z,2432.00
2019-04-30T11:06:10.059Z,2444.00
2019-04-30T11:07:10.154Z,2420.00
2019-04-30T11:08:10.037Z,2476.00
2019-04-30T11:09:10.116Z,2532.00
2019-04-30T11:10:10.014Z,2512.00
2019-04-30T11:11:10.131Z,2468.00
2019-04-30T11:12:10.027Z,2444.00
2019-04-30T11:13:10.042Z,2408.00
2019-04-30T11:14:09.984Z,2380.00
2019-04-30T11:15:10.058Z,2368.00
2019-04-30T11:16:14.740Z,2368.00
2019-04-30T11:17:11.251Z,2348.00
2019-04-30T11:18:10.205Z,2360.00
2019-04-30T11:19:10.223Z,2340.00
2019-04-30T11:20:10.475Z,2320.00
2019-04-30T11:21:10.245Z,2312.00
2019-04-30T11:22:10.116Z,2332.00
2019-04-30T11:23:14.501Z,2360.00
2019-04-30T11:24:11.089Z,2408.00
2019-04-30T11:25:10.388Z,2324.00
2019-04-30T11:26:10.442Z,2164.00
2019-04-30T11:27:11.158Z,2340.00
2019-04-30T11:28:10.243Z,2404.00
2019-04-30T11:29:10.147Z,2436.00
2019-04-30T11:30:20.749Z,2560.00
2019-04-30T11:31:10.998Z,2560.00
2019-04-30T11:32:10.115Z,2632.00
2019-04-30T11:33:09.977Z,2648.00
2019-04-30T11:34:09.790Z,2616.00
2019-04-30T11:35:09.788Z,2616.00
2019-04-30T11:36:09.792Z,2640.00
2019-04-30T11:37:09.743Z,2648.00
2019-04-30T11:38:09.815Z,2656.00
2019-04-30T11:39:09.726Z,2632.00
2019-04-30T11:40:09.718Z,2592.00
2019-04-30T11:41:09.677Z,2556.00
2019-04-30T11:42:09.734Z,1728.00
2019-04-30T11:43:09.689Z,1748.00
2019-04-30T11:44:09.746Z,2544.00
2019-04-30T11:45:09.641Z,2528.00
2019-04-30T11:46:09.663Z,2500.00
2019-04-30T11:47:09.666Z,2488.00
2019-04-30T11:48:09.706Z,2484.00
2019-04-30T11:49:09.755Z,2484.00
2019-04-30T11:50:09.692Z,2468.00
2019-04-30T11:51:09.576Z,2440.00
2019-04-30T11:52:09.600Z,2428.00
2019-04-30T11:53:22.614Z,2420.00
2019-04-30T11:54:10.573Z,2420.00
2019-04-30T11:55:09.844Z,2440.00
2019-04-30T11:56:09.533Z,2420.00
2019-04-30T11:57:09.532Z,2348.00
2019-04-30T11:58:21.146Z,2328.00
2019-04-30T11:59:10.482Z,2276.00
2019-04-30T12:00:10.762Z,2252.00
2019-04-30T12:01:09.475Z,2256.00
2019-04-30T12:02:09.571Z,2272.00
2019-04-30T12:03:09.435Z,2296.00
2019-04-30T12:04:09.530Z,2368.00
2019-04-30T12:05:09.445Z,2400.00
2019-04-30T12:06:09.496Z,2412.00
2019-04-30T12:07:09.397Z,2424.00
2019-04-30T12:08:09.600Z,2480.00
2019-04-30T12:09:09.419Z,2476.00
2019-04-30T12:10:09.564Z,2436.00
2019-04-30T12:11:09.340Z,2408.00
2019-04-30T12:12:09.448Z,2372.00
2019-04-30T12:13:09.650Z,2364.00
2019-04-30T12:14:09.396Z,2348.00
2019-04-30T12:15:10.115Z,2336.00
2019-04-30T12:16:09.383Z,2312.00
2019-04-30T12:17:09.301Z,2296.00
2019-04-30T12:18:09.381Z,2268.00
2019-04-30T12:19:09.275Z,1840.00
2019-04-30T12:20:09.325Z,1576.00
2019-04-30T12:21:09.237Z,2332.00
2019-04-30T12:22:09.300Z,1612.00
2019-04-30T12:23:11.723Z,1564.00
2019-04-30T12:24:09.316Z,2208.00
2019-04-30T12:25:10.018Z,2408.00
2019-04-30T12:26:09.344Z,2404.00
2019-04-30T12:27:09.183Z,2416.00
2019-04-30T12:28:09.544Z,2456.00
2019-04-30T12:29:11.179Z,2468.00
2019-04-30T12:30:09.163Z,2544.00
2019-04-30T12:31:09.879Z,2616.00